createdAt,value
2023-05-09T00:00:55.846Z,70.92
2023-05-09T00:03:22.825Z,71.56
2023-05-09T00:05:49.880Z,71.23
2023-05-09T00:08:17.082Z,71.80
2023-05-09T00:10:44.106Z,71.71
2023-05-09T00:13:12.231Z,72.22
2023-05-09T00:15:39.415Z,72.00
2023-05-09T00:18:06.673Z,72.53
2023-05-09T00:20:34.173Z,72.90
2023-05-09T00:23:01.237Z,72.44
2023-05-09T00:25:28.304Z,72.27
2023-05-09T00:27:55.332Z,72.58
2023-05-09T00:30:22.361Z,73.86
2023-05-09T00:32:49.457Z,73.20
2023-05-09T00:35:16.717Z,73.69
2023-05-09T00:37:43.835Z,70.73
2023-05-09T00:40:11.581Z,70.59
2023-05-09T00:42:38.577Z,68.56
2023-05-09T00:45:07.085Z,68.60
2023-05-09T00:47:34.394Z,68.43
2023-05-09T00:50:02.430Z,68.72
2023-05-09T00:52:30.083Z,68.06
2023-05-09T00:54:57.736Z,70.86
2023-05-09T00:57:24.791Z,72.25
2023-05-09T00:59:51.827Z,73.01
2023-05-09T01:02:19.261Z,73.62
2023-05-09T01:04:47.284Z,70.05
2023-05-09T01:07:39.476Z,70.60
2023-05-09T01:10:36.993Z,68.47
2023-05-09T01:13:38.496Z,69.94
2023-05-09T01:16:26.622Z,69.57
2023-05-09T01:19:09.576Z,70.55
2023-05-09T01:21:40.741Z,70.85
2023-05-09T01:24:25.072Z,72.60
2023-05-09T01:27:36.340Z,72.38
2023-05-09T01:30:04.985Z,73.83
2023-05-09T01:32:36.495Z,72.12
2023-05-09T01:35:05.258Z,72.14
2023-05-09T01:37:39.709Z,72.88
2023-05-09T01:40:20.183Z,74.37
2023-05-09T01:43:00.138Z,77.21
2023-05-09T01:45:28.801Z,75.16
2023-05-09T01:47:58.292Z,73.33
2023-05-09T01:50:26.917Z,74.78
2023-05-09T01:52:57.786Z,73.80
2023-05-09T01:55:32.913Z,73.10
2023-05-09T01:58:01.208Z,72.73
2023-05-09T02:00:28.810Z,73.56
2023-05-09T02:02:57.707Z,72.70
2023-05-09T02:05:28.768Z,72.84
2023-05-09T02:07:58.576Z,72.57
2023-05-09T02:10:28.702Z,72.62
2023-05-09T02:12:57.306Z,72.57
2023-05-09T02:15:26.069Z,73.00
2023-05-09T02:17:53.237Z,74.62
2023-05-09T02:20:20.562Z,75.20
2023-05-09T02:22:48.420Z,74.39
2023-05-09T02:25:16.114Z,73.30
2023-05-09T02:27:46.179Z,72.10
2023-05-09T02:30:21.098Z,73.30
2023-05-09T02:32:50.806Z,73.61
2023-05-09T02:35:18.647Z,74.62
2023-05-09T02:37:47.512Z,75.04
2023-05-09T02:40:14.804Z,74.39
2023-05-09T02:42:41.988Z,74.53
2023-05-09T02:45:11.161Z,76.06
2023-05-09T02:47:39.345Z,76.08
2023-05-09T02:50:07.390Z,76.45
2023-05-09T02:52:34.465Z,76.91
2023-05-09T02:55:01.423Z,77.25
2023-05-09T02:57:28.381Z,77.41
2023-05-09T02:59:55.363Z,77.43
2023-05-09T03:02:23.800Z,76.83
2023-05-09T03:04:51.055Z,75.43
2023-05-09T03:07:18.103Z,75.70
2023-05-09T03:09:45.149Z,76.00
2023-05-09T03:12:12.237Z,75.92
2023-05-09T03:14:39.237Z,74.54
2023-05-09T03:17:06.292Z,74.02
2023-05-09T03:19:33.676Z,74.42
2023-05-09T03:22:00.710Z,74.56
2023-05-09T03:24:28.339Z,69.68
2023-05-09T03:26:55.610Z,66.95
2023-05-09T03:29:22.836Z,63.93
2023-05-09T03:31:49.930Z,61.51
2023-05-09T03:34:17.257Z,58.71
2023-05-09T03:36:44.715Z,56.48
2023-05-09T03:39:11.772Z,52.76
2023-05-09T03:41:38.841Z,51.00
2023-05-09T03:44:06.197Z,47.79
2023-05-09T03:46:33.284Z,46.24
2023-05-09T03:49:00.332Z,45.11
2023-05-09T03:51:27.333Z,43.36
2023-05-09T03:53:54.347Z,41.89
2023-05-09T03:56:21.290Z,40.80
2023-05-09T03:58:48.636Z,38.91
2023-05-09T04:01:16.203Z,38.32
2023-05-09T04:03:43.398Z,36.82
2023-05-09T04:06:10.701Z,35.29
2023-05-09T04:08:37.877Z,34.14
2023-05-09T04:11:04.977Z,32.72
2023-05-09T04:13:33.104Z,31.41
2023-05-09T04:16:00.121Z,31.08
2023-05-09T04:18:27.237Z,30.11
2023-05-09T04:20:54.273Z,29.61
2023-05-09T04:23:21.225Z,27.28
2023-05-09T04:25:50.332Z,26.11
2023-05-09T04:28:17.521Z,23.85
2023-05-09T04:30:44.549Z,23.85
2023-05-09T04:33:11.653Z,22.87
2023-05-09T04:35:38.863Z,22.91
2023-05-09T04:38:06.068Z,21.45
2023-05-09T04:40:33.482Z,21.30
2023-05-09T04:43:00.491Z,19.97
2023-05-09T04:45:27.785Z,18.92
2023-05-09T04:47:54.831Z,18.88
2023-05-09T04:50:21.887Z,19.35
2023-05-09T04:52:49.129Z,18.29
2023-05-09T04:55:16.451Z,18.02
2023-05-09T04:57:43.572Z,19.28
2023-05-09T05:00:11.997Z,17.73
2023-05-09T05:02:39.132Z,17.75
2023-05-09T05:05:12.100Z,18.43
2023-05-09T05:07:39.745Z,17.65
2023-05-09T05:10:07.611Z,16.94
2023-05-09T05:12:34.668Z,16.35
2023-05-09T05:15:01.678Z,16.01
2023-05-09T05:17:29.678Z,16.03
2023-05-09T05:19:56.986Z,15.48
2023-05-09T05:22:24.366Z,16.11
2023-05-09T05:24:51.414Z,14.67
2023-05-09T05:27:18.494Z,12.25
2023-05-09T05:29:45.470Z,13.07
2023-05-09T05:32:12.575Z,13.30
2023-05-09T05:34:39.769Z,11.99
2023-05-09T05:37:06.792Z,13.20
2023-05-09T05:39:33.822Z,12.18
2023-05-09T05:42:00.850Z,11.39
2023-05-09T05:44:27.828Z,11.73
2023-05-09T05:46:54.850Z,11.65
2023-05-09T05:49:21.879Z,13.25
2023-05-09T05:51:48.893Z,10.98
2023-05-09T05:54:15.863Z,12.12
2023-05-09T05:56:43.045Z,11.81
2023-05-09T05:59:12.556Z,11.69
2023-05-09T06:01:40.832Z,11.23
2023-05-09T06:04:08.074Z,11.44
2023-05-09T06:06:35.203Z,10.25
2023-05-09T06:09:02.199Z,10.65
2023-05-09T06:11:29.197Z,10.75
2023-05-09T06:13:56.269Z,11.66
2023-05-09T06:16:23.384Z,12.46
2023-05-09T06:18:51.155Z,10.36
2023-05-09T06:21:18.788Z,12.12
2023-05-09T06:23:57.820Z,11.78
2023-05-09T06:26:29.378Z,13.13
2023-05-09T06:28:56.446Z,13.77
2023-05-09T06:31:25.473Z,13.62
2023-05-09T06:33:53.202Z,13.45
2023-05-09T06:36:20.353Z,12.52
2023-05-09T06:38:47.412Z,12.89
2023-05-09T06:41:14.560Z,12.77
2023-05-09T06:43:41.579Z,12.39
2023-05-09T06:46:08.644Z,12.21
2023-05-09T06:48:35.780Z,11.90
2023-05-09T06:51:03.061Z,11.62
2023-05-09T06:53:30.027Z,11.66
2023-05-09T06:55:57.092Z,12.33
2023-05-09T06:58:24.204Z,12.44
2023-05-09T07:00:51.709Z,11.52
2023-05-09T07:03:18.732Z,11.23
2023-05-09T07:05:45.856Z,11.15
2023-05-09T07:08:12.810Z,11.25
2023-05-09T07:10:40.069Z,10.55
2023-05-09T07:13:07.176Z,11.51
2023-05-09T07:15:42.234Z,11.47
2023-05-09T07:18:10.093Z,11.02
2023-05-09T07:20:37.337Z,12.04
2023-05-09T07:23:06.017Z,11.74
2023-05-09T07:25:33.966Z,12.65
2023-05-09T07:28:01.193Z,13.08
2023-05-09T07:30:28.247Z,15.00
2023-05-09T07:32:55.356Z,15.38
2023-05-09T07:35:22.664Z,15.28
2023-05-09T07:37:49.717Z,14.93
2023-05-09T07:40:17.004Z,14.08
2023-05-09T07:42:50.022Z,13.22
2023-05-09T07:45:18.831Z,14.26
2023-05-09T07:47:47.050Z,13.71
2023-05-09T07:50:14.074Z,13.41
2023-05-09T07:52:41.196Z,14.01
2023-05-09T07:55:08.686Z,14.41
2023-05-09T07:57:35.691Z,14.74
2023-05-09T08:00:02.829Z,14.89
2023-05-09T08:02:29.851Z,15.24
2023-05-09T08:04:56.918Z,14.70
2023-05-09T08:07:23.885Z,14.91
2023-05-09T08:09:50.908Z,15.84
2023-05-09T08:12:17.981Z,15.33
2023-05-09T08:14:45.115Z,15.35
2023-05-09T08:17:12.149Z,15.42
2023-05-09T08:19:39.192Z,16.22
2023-05-09T08:22:06.154Z,16.16
2023-05-09T08:24:33.204Z,15.84
2023-05-09T08:27:00.762Z,16.43
2023-05-09T08:29:28.977Z,16.14
2023-05-09T08:31:56.102Z,15.67
2023-05-09T08:34:23.226Z,16.36
2023-05-09T08:36:50.237Z,16.23
2023-05-09T08:39:17.285Z,17.01
2023-05-09T08:41:44.579Z,17.37
2023-05-09T08:44:11.761Z,16.67
2023-05-09T08:46:43.758Z,16.70
2023-05-09T08:49:11.597Z,16.88
2023-05-09T08:51:39.740Z,16.44
2023-05-09T08:54:06.994Z,16.77
2023-05-09T08:56:35.525Z,16.87
2023-05-09T08:59:03.986Z,16.53
2023-05-09T09:01:33.270Z,16.14
2023-05-09T09:04:01.123Z,16.98
2023-05-09T09:06:30.230Z,17.17
2023-05-09T09:08:58.918Z,17.65
2023-05-09T09:11:28.638Z,18.19
2023-05-09T09:13:59.556Z,17.47
2023-05-09T09:16:28.893Z,17.86
2023-05-09T09:18:58.952Z,17.31
2023-05-09T09:21:27.425Z,18.45
2023-05-09T09:23:56.760Z,18.52
2023-05-09T09:26:24.786Z,18.80
2023-05-09T09:28:52.037Z,19.10
2023-05-09T09:31:26.009Z,20.22
2023-05-09T09:33:58.899Z,19.37
2023-05-09T09:36:32.324Z,18.92
2023-05-09T09:39:02.491Z,19.54
2023-05-09T09:41:37.104Z,19.33
2023-05-09T09:44:14.336Z,18.90
2023-05-09T09:46:55.881Z,19.56
2023-05-09T09:49:25.532Z,19.00
2023-05-09T09:51:58.032Z,19.16
2023-05-09T09:54:29.055Z,19.51
2023-05-09T09:56:56.542Z,19.87
2023-05-09T09:59:26.672Z,19.79
2023-05-09T10:02:01.889Z,19.24
2023-05-09T10:04:32.712Z,19.27
2023-05-09T10:07:06.425Z,19.04
2023-05-09T10:09:35.720Z,19.29
2023-05-09T10:12:06.291Z,18.96
2023-05-09T10:14:36.619Z,19.22
2023-05-09T10:17:05.933Z,19.16
2023-05-09T10:19:35.835Z,19.29
2023-05-09T10:22:11.940Z,19.89
2023-05-09T10:25:14.082Z,19.34
2023-05-09T10:27:46.784Z,18.95
2023-05-09T10:30:34.214Z,18.85
2023-05-09T10:33:10.475Z,19.54
2023-05-09T10:35:47.248Z,19.41
2023-05-09T10:38:14.553Z,19.11
2023-05-09T10:40:42.031Z,19.66
2023-05-09T10:43:09.065Z,19.78
2023-05-09T10:45:36.888Z,20.82
2023-05-09T10:48:08.855Z,21.41
2023-05-09T10:50:37.731Z,20.93
2023-05-09T10:53:04.868Z,21.75
2023-05-09T10:55:39.999Z,20.89
2023-05-09T10:58:28.876Z,20.74
2023-05-09T11:00:59.301Z,21.22
2023-05-09T11:03:28.190Z,21.50
2023-05-09T11:05:58.506Z,21.62
2023-05-09T11:08:31.315Z,22.25
2023-05-09T11:11:07.442Z,22.53
2023-05-09T11:13:38.505Z,22.17
2023-05-09T11:16:09.412Z,21.65
2023-05-09T11:18:52.032Z,21.35
2023-05-09T11:21:20.478Z,21.65
2023-05-09T11:23:49.091Z,22.31
2023-05-09T11:26:16.862Z,22.55
2023-05-09T11:28:53.965Z,22.71
2023-05-09T11:31:21.161Z,22.45
2023-05-09T11:33:55.182Z,22.41
2023-05-09T11:36:30.020Z,22.08
2023-05-09T11:39:11.465Z,22.01
2023-05-09T11:41:46.309Z,22.18
2023-05-09T11:44:21.350Z,22.78
2023-05-09T11:46:49.523Z,22.43
2023-05-09T11:49:17.789Z,22.67
2023-05-09T11:51:44.820Z,23.22
2023-05-09T11:54:13.687Z,23.70
2023-05-09T11:56:42.029Z,24.35
2023-05-09T11:59:10.597Z,24.11
2023-05-09T12:01:37.685Z,23.94
2023-05-09T12:04:08.399Z,23.88
2023-05-09T12:06:35.479Z,23.82
2023-05-09T12:09:02.603Z,23.81
2023-05-09T12:11:32.473Z,23.37
2023-05-09T12:13:59.685Z,23.44
2023-05-09T12:16:26.829Z,23.59
2023-05-09T12:18:54.355Z,24.29
2023-05-09T12:21:21.858Z,24.06
2023-05-09T12:23:51.298Z,23.79
2023-05-09T12:26:22.187Z,23.92
2023-05-09T12:28:50.117Z,23.57
2023-05-09T12:31:17.985Z,24.25
2023-05-09T12:33:45.253Z,24.34
2023-05-09T12:36:13.806Z,24.24
2023-05-09T12:38:40.961Z,23.96
2023-05-09T12:41:33.382Z,23.97
2023-05-09T12:43:59.155Z,23.98
2023-05-09T12:46:26.196Z,23.83
2023-05-09T12:48:55.288Z,23.87
2023-05-09T12:51:23.559Z,24.04
2023-05-09T12:53:50.596Z,23.60
2023-05-09T12:56:20.885Z,23.68
2023-05-09T12:58:53.422Z,24.82
2023-05-09T13:01:23.766Z,24.72
2023-05-09T13:04:05.916Z,24.98
2023-05-09T13:06:34.471Z,24.76
2023-05-09T13:09:06.149Z,24.74
2023-05-09T13:11:33.283Z,24.54
2023-05-09T13:14:00.428Z,24.75
2023-05-09T13:16:27.720Z,25.09
2023-05-09T13:18:54.767Z,24.48
2023-05-09T13:21:21.829Z,24.47
2023-05-09T13:23:50.241Z,25.04
2023-05-09T13:26:17.492Z,25.02
2023-05-09T13:28:44.548Z,24.61
2023-05-09T13:31:11.670Z,24.46
2023-05-09T13:33:38.826Z,24.90
2023-05-09T13:36:06.661Z,24.68
2023-05-09T13:38:37.167Z,25.05
2023-05-09T13:41:04.378Z,24.09
2023-05-09T13:43:31.359Z,24.54
2023-05-09T13:45:58.417Z,24.84
2023-05-09T13:48:25.416Z,25.12
2023-05-09T13:50:52.577Z,24.79
2023-05-09T13:53:20.020Z,25.30
2023-05-09T13:55:47.348Z,25.06
2023-05-09T13:58:14.380Z,24.79
2023-05-09T14:00:41.949Z,24.93
2023-05-09T14:03:09.758Z,25.27
2023-05-09T14:05:36.816Z,24.69
2023-05-09T14:08:03.969Z,25.02
2023-05-09T14:10:30.959Z,25.02
2023-05-09T14:12:58.777Z,24.86
2023-05-09T14:15:26.093Z,25.18
2023-05-09T14:17:53.142Z,25.19
2023-05-09T14:20:21.265Z,25.32
2023-05-09T14:22:48.331Z,25.30
2023-05-09T14:25:15.370Z,25.68
2023-05-09T14:27:42.377Z,25.29
2023-05-09T14:30:11.408Z,25.20
2023-05-09T14:32:38.411Z,24.94
2023-05-09T14:35:06.209Z,25.10
2023-05-09T14:37:33.854Z,24.85
2023-05-09T14:40:05.511Z,25.00
2023-05-09T14:42:32.963Z,24.86
2023-05-09T14:44:59.972Z,24.90
2023-05-09T14:47:27.093Z,25.16
2023-05-09T14:49:54.231Z,25.42
2023-05-09T14:52:21.223Z,25.51
2023-05-09T14:54:48.205Z,25.64
2023-05-09T14:57:15.155Z,25.38
2023-05-09T14:59:42.296Z,24.91
2023-05-09T15:02:09.256Z,24.91
2023-05-09T15:04:36.270Z,25.06
2023-05-09T15:07:03.277Z,25.12
2023-05-09T15:09:30.269Z,25.21
2023-05-09T15:11:57.249Z,25.68
2023-05-09T15:14:24.257Z,25.82
2023-05-09T15:16:55.385Z,25.82
2023-05-09T15:19:22.670Z,25.55
2023-05-09T15:21:49.833Z,26.25
2023-05-09T15:24:17.135Z,26.28
2023-05-09T15:26:44.323Z,26.29
2023-05-09T15:29:11.350Z,25.85
2023-05-09T15:31:38.517Z,25.85
2023-05-09T15:34:05.501Z,25.40
2023-05-09T15:36:34.015Z,25.32
2023-05-09T15:39:01.400Z,25.96
2023-05-09T15:41:28.755Z,26.29
2023-05-09T15:43:55.792Z,26.28
2023-05-09T15:46:22.968Z,26.33
2023-05-09T15:48:50.681Z,26.46
2023-05-09T15:51:17.751Z,26.32
2023-05-09T15:53:44.925Z,26.18
2023-05-09T15:56:11.933Z,26.03
2023-05-09T15:58:40.343Z,26.34
2023-05-09T16:01:08.276Z,26.47
2023-05-09T16:03:35.817Z,26.73
2023-05-09T16:06:03.362Z,26.48
2023-05-09T16:08:30.422Z,26.52
2023-05-09T16:11:00.818Z,26.14
2023-05-09T16:13:28.297Z,26.30
2023-05-09T16:15:55.692Z,26.53
2023-05-09T16:18:22.862Z,26.08
2023-05-09T16:20:49.891Z,26.29
2023-05-09T16:23:17.007Z,26.17
2023-05-09T16:25:45.045Z,26.40
2023-05-09T16:28:12.237Z,26.47
2023-05-09T16:30:39.250Z,26.38
2023-05-09T16:33:06.277Z,26.38
2023-05-09T16:35:33.967Z,26.71
2023-05-09T16:38:01.084Z,26.21
2023-05-09T16:40:28.594Z,26.48
2023-05-09T16:42:55.841Z,26.45
2023-05-09T16:45:22.891Z,26.50
2023-05-09T16:47:51.242Z,26.41
2023-05-09T16:50:18.448Z,26.62
2023-05-09T16:52:45.512Z,26.73
2023-05-09T16:55:12.595Z,27.56
2023-05-09T16:57:39.709Z,27.46
2023-05-09T17:00:09.851Z,27.25
2023-05-09T17:02:37.309Z,27.79
2023-05-09T17:05:05.134Z,28.11
2023-05-09T17:07:32.355Z,28.16
2023-05-09T17:09:59.583Z,27.97
2023-05-09T17:12:27.627Z,27.96
2023-05-09T17:14:54.703Z,27.90
2023-05-09T17:17:21.743Z,28.09
2023-05-09T17:19:48.901Z,28.06
2023-05-09T17:22:15.892Z,28.52
2023-05-09T17:24:42.945Z,28.63
2023-05-09T17:27:11.499Z,28.70
2023-05-09T17:29:38.549Z,28.70
2023-05-09T17:32:05.894Z,28.62
2023-05-09T17:34:33.513Z,28.35
2023-05-09T17:37:02.361Z,28.63
2023-05-09T17:39:29.613Z,28.39
2023-05-09T17:41:56.706Z,29.00
2023-05-09T17:44:24.119Z,29.22
2023-05-09T17:46:51.223Z,28.97
2023-05-09T17:49:18.424Z,29.50
2023-05-09T17:51:45.456Z,29.62
2023-05-09T17:54:12.979Z,29.73
2023-05-09T17:56:40.151Z,29.76
2023-05-09T18:01:35.068Z,29.51
2023-05-09T18:04:02.260Z,29.83
2023-05-09T18:06:29.445Z,29.89
2023-05-09T18:08:56.421Z,29.86
2023-05-09T18:11:24.575Z,30.41
2023-05-09T18:13:51.627Z,30.21
2023-05-09T18:16:18.683Z,30.45
2023-05-09T18:18:45.783Z,30.24
2023-05-09T18:21:13.073Z,30.48
2023-05-09T18:23:41.046Z,30.79
2023-05-09T18:26:08.614Z,31.16
2023-05-09T18:28:41.761Z,31.24
2023-05-09T18:31:11.666Z,31.51
2023-05-09T18:33:39.415Z,31.36
2023-05-09T18:36:11.230Z,31.76
2023-05-09T18:38:39.860Z,31.75
2023-05-09T18:41:15.610Z,31.96
2023-05-09T18:43:46.576Z,32.30
2023-05-09T18:46:17.638Z,32.15
2023-05-09T18:48:46.322Z,32.42
2023-05-09T18:51:13.439Z,32.09
2023-05-09T18:53:40.532Z,32.62
2023-05-09T18:56:07.778Z,32.82
2023-05-09T18:58:35.833Z,32.89
2023-05-09T19:01:03.060Z,32.90
2023-05-09T19:03:30.459Z,33.11
2023-05-09T19:05:59.820Z,33.10
2023-05-09T19:08:27.346Z,33.41
2023-05-09T19:10:54.383Z,33.75
2023-05-09T19:13:21.536Z,33.65
2023-05-09T19:15:48.650Z,34.10
2023-05-09T19:18:15.676Z,34.32
2023-05-09T19:20:46.569Z,33.91
2023-05-09T19:23:13.570Z,34.43
2023-05-09T19:25:40.632Z,34.47
2023-05-09T19:28:07.766Z,34.59
2023-05-09T19:30:35.963Z,34.62
2023-05-09T19:33:03.055Z,34.91
2023-05-09T19:35:30.098Z,35.15
2023-05-09T19:37:58.165Z,35.34
2023-05-09T19:40:25.160Z,35.58
2023-05-09T19:42:52.166Z,35.67
2023-05-09T19:45:19.977Z,35.31
2023-05-09T19:47:47.175Z,35.56
2023-05-09T19:50:14.451Z,35.79
2023-05-09T19:52:41.761Z,35.68
2023-05-09T19:55:09.814Z,35.42
2023-05-09T19:57:36.931Z,35.60
2023-05-09T20:00:07.032Z,35.40
2023-05-09T20:02:34.484Z,35.68
2023-05-09T20:05:01.598Z,35.28
2023-05-09T20:07:28.757Z,35.79
2023-05-09T20:09:55.875Z,35.67
2023-05-09T20:12:22.887Z,35.78
2023-05-09T20:14:49.891Z,36.03
2023-05-09T20:17:16.947Z,35.92
2023-05-09T20:19:45.081Z,36.00
2023-05-09T20:22:12.125Z,36.34
2023-05-09T20:24:39.170Z,36.21
2023-05-09T20:27:06.196Z,36.67
2023-05-09T20:29:33.261Z,37.01
2023-05-09T20:32:00.504Z,36.54
2023-05-09T20:34:27.612Z,36.75
2023-05-09T20:36:55.170Z,36.49
2023-05-09T20:39:23.166Z,36.86
2023-05-09T20:41:51.375Z,37.20
2023-05-09T20:44:19.216Z,37.13
2023-05-09T20:46:46.596Z,37.50
2023-05-09T20:49:13.801Z,37.59
2023-05-09T20:51:40.896Z,37.87
2023-05-09T20:54:08.115Z,37.51
2023-05-09T20:56:35.680Z,37.86
2023-05-09T20:59:04.209Z,37.91
2023-05-09T21:01:35.406Z,37.86
2023-05-09T21:04:08.267Z,37.93
2023-05-09T21:06:36.565Z,38.17
2023-05-09T21:09:09.260Z,38.03
2023-05-09T21:11:37.287Z,38.06
2023-05-09T21:14:04.263Z,37.91
2023-05-09T21:16:31.593Z,37.69
2023-05-09T21:19:02.484Z,37.84
2023-05-09T21:21:31.603Z,38.05
2023-05-09T21:23:59.621Z,37.64
2023-05-09T21:26:26.730Z,37.97
2023-05-09T21:28:53.805Z,38.00
2023-05-09T21:31:20.979Z,37.87
2023-05-09T21:33:48.040Z,37.53
2023-05-09T21:36:15.048Z,37.01
2023-05-09T21:38:42.111Z,37.19
2023-05-09T21:41:10.159Z,36.73
2023-05-09T21:43:37.732Z,36.67
2023-05-09T21:46:06.094Z,36.34
2023-05-09T21:48:33.258Z,36.43
2023-05-09T21:51:03.957Z,36.38
2023-05-09T21:53:31.193Z,36.64
2023-05-09T21:55:58.188Z,36.40
2023-05-09T21:58:25.295Z,36.18
2023-05-09T22:00:52.261Z,36.44
2023-05-09T22:03:19.440Z,35.91
2023-05-09T22:05:46.530Z,36.08
2023-05-09T22:08:13.629Z,36.02
2023-05-09T22:10:40.923Z,35.90
2023-05-09T22:13:08.675Z,36.10
2023-05-09T22:15:35.703Z,36.32
2023-05-09T22:18:02.788Z,36.21
2023-05-09T22:20:29.888Z,36.41
2023-05-09T22:22:57.021Z,36.59
2023-05-09T22:25:23.976Z,36.62
2023-05-09T22:27:51.230Z,36.24
2023-05-09T22:30:18.418Z,36.30
2023-05-09T22:32:45.983Z,36.62
2023-05-09T22:35:13.085Z,36.49
2023-05-09T22:37:40.143Z,36.39
2023-05-09T22:40:09.342Z,36.85
2023-05-09T22:42:36.603Z,36.49
2023-05-09T22:45:03.899Z,36.77
2023-05-09T22:47:30.942Z,36.71
2023-05-09T22:49:58.108Z,37.26
2023-05-09T22:52:25.192Z,37.27
2023-05-09T22:54:52.583Z,37.83
2023-05-09T22:57:20.563Z,38.46
2023-05-09T22:59:47.634Z,37.89
2023-05-09T23:02:14.720Z,38.48
2023-05-09T23:04:41.890Z,38.55
2023-05-09T23:07:08.903Z,38.87
2023-05-09T23:09:35.924Z,39.43
2023-05-09T23:12:03.625Z,39.91
2023-05-09T23:14:30.681Z,39.50
2023-05-09T23:16:57.658Z,40.20
2023-05-09T23:19:24.736Z,39.90
2023-05-09T23:21:51.831Z,40.25
2023-05-09T23:24:18.949Z,40.52
2023-05-09T23:26:45.952Z,40.88
2023-05-09T23:29:13.022Z,41.24
2023-05-09T23:31:40.140Z,41.18
2023-05-09T23:34:07.156Z,41.41
2023-05-09T23:36:34.136Z,41.58
2023-05-09T23:39:01.168Z,41.74
2023-05-09T23:41:28.145Z,41.97
2023-05-09T23:43:57.965Z,42.15
2023-05-09T23:46:25.118Z,42.20
2023-05-09T23:48:52.175Z,42.46
2023-05-09T23:51:20.590Z,42.46
2023-05-09T23:53:47.641Z,42.99
2023-05-09T23:56:15.120Z,43.00
2023-05-09T23:58:42.788Z,42.80
